createdAt,value
2023-02-12T00:00:06.849Z,12.43
2023-02-12T00:02:34.676Z,11.23
2023-02-12T00:05:02.423Z,10.80
2023-02-12T00:07:30.908Z,11.87
2023-02-12T00:09:58.575Z,9.63
2023-02-12T00:12:26.272Z,12.47
2023-02-12T00:14:55.476Z,16.13
2023-02-12T00:17:23.576Z,15.73
2023-02-12T00:19:51.431Z,11.83
2023-02-12T00:22:19.109Z,9.30
2023-02-12T00:24:46.743Z,14.70
2023-02-12T00:27:14.469Z,8.77
2023-02-12T00:29:42.265Z,12.70
2023-02-12T00:32:11.844Z,9.27
2023-02-12T00:34:39.728Z,10.87
2023-02-12T00:37:07.379Z,12.60
2023-02-12T00:39:38.028Z,12.87
2023-02-12T00:42:06.084Z,12.90
2023-02-12T00:44:33.886Z,9.50
2023-02-12T00:47:02.452Z,7.73
2023-02-12T00:49:34.232Z,15.10
2023-02-12T00:52:02.332Z,11.73
2023-02-12T00:54:30.094Z,11.10
2023-02-12T00:56:57.871Z,13.00
2023-02-12T00:59:25.984Z,12.00
2023-02-12T01:01:55.452Z,11.40
2023-02-12T01:04:23.593Z,11.47
2023-02-12T01:06:52.645Z,11.57
2023-02-12T01:09:20.415Z,9.60
2023-02-12T01:11:48.171Z,14.27
2023-02-12T01:14:15.828Z,11.43
2023-02-12T01:16:43.473Z,8.97
2023-02-12T01:19:12.542Z,11.30
2023-02-12T01:21:40.442Z,9.93
2023-02-12T01:24:09.562Z,10.77
2023-02-12T01:26:37.638Z,11.23
2023-02-12T01:29:07.139Z,13.33
2023-02-12T01:31:35.667Z,12.20
2023-02-12T01:34:03.399Z,14.23
2023-02-12T01:36:31.836Z,12.50
2023-02-12T01:38:59.798Z,13.67
2023-02-12T01:41:29.699Z,14.73
2023-02-12T01:44:07.310Z,12.30
2023-02-12T01:46:35.068Z,11.67
2023-02-12T01:49:03.985Z,14.57
2023-02-12T01:51:32.837Z,12.23
2023-02-12T01:54:01.516Z,15.37
2023-02-12T01:56:31.306Z,14.63
2023-02-12T01:58:59.103Z,15.13
2023-02-12T02:01:28.524Z,11.40
2023-02-12T02:03:58.141Z,14.83
2023-02-12T02:06:27.778Z,15.47
2023-02-12T02:08:56.101Z,13.33
2023-02-12T02:11:41.628Z,12.27
2023-02-12T02:14:28.081Z,14.13
2023-02-12T02:17:01.857Z,14.40
2023-02-12T02:19:34.963Z,12.40
2023-02-12T02:22:08.844Z,12.30
2023-02-12T02:24:56.636Z,15.30
2023-02-12T02:27:28.247Z,15.00
2023-02-12T02:30:16.719Z,11.40
2023-02-12T02:32:51.260Z,15.00
2023-02-12T02:35:22.976Z,17.03
2023-02-12T02:37:53.067Z,13.90
2023-02-12T02:40:21.979Z,15.37
2023-02-12T02:42:53.461Z,16.67
2023-02-12T02:45:23.641Z,15.00
2023-02-12T02:47:54.347Z,19.47
2023-02-12T02:50:24.396Z,12.30
2023-02-12T02:52:54.560Z,16.03
2023-02-12T02:55:23.576Z,17.77
2023-02-12T02:57:53.881Z,16.97
2023-02-12T03:00:23.535Z,15.70
2023-02-12T03:02:56.367Z,16.03
2023-02-12T03:05:26.338Z,19.47
2023-02-12T03:07:57.102Z,25.33
2023-02-12T03:10:28.225Z,18.13
2023-02-12T03:12:58.713Z,18.53
2023-02-12T03:15:29.192Z,19.83
2023-02-12T03:17:59.743Z,24.00
2023-02-12T03:20:30.147Z,18.70
2023-02-12T03:22:59.913Z,18.33
2023-02-12T03:25:29.591Z,20.43
2023-02-12T03:28:00.418Z,15.30
2023-02-12T03:30:39.498Z,18.27
2023-02-12T03:33:11.296Z,20.23
2023-02-12T03:35:43.012Z,21.57
2023-02-12T03:38:16.326Z,24.23
2023-02-12T03:40:47.398Z,27.57
2023-02-12T03:43:20.399Z,18.60
2023-02-12T03:45:51.488Z,21.30
2023-02-12T03:48:23.338Z,16.57
2023-02-12T03:50:54.888Z,16.33
2023-02-12T03:53:22.603Z,13.43
2023-02-12T03:55:53.555Z,13.47
2023-02-12T03:58:22.679Z,18.47
2023-02-12T04:00:50.370Z,13.93
2023-02-12T04:03:18.121Z,18.03
2023-02-12T04:05:47.162Z,14.80
2023-02-12T04:08:15.032Z,15.97
2023-02-12T04:10:47.240Z,13.60
2023-02-12T04:13:18.407Z,16.17
2023-02-12T04:15:52.347Z,16.07
2023-02-12T04:18:22.588Z,17.43
2023-02-12T04:20:55.442Z,19.07
2023-02-12T04:23:31.799Z,13.63
2023-02-12T04:26:03.840Z,18.07
2023-02-12T04:28:37.023Z,16.83
2023-02-12T04:31:07.646Z,16.90
2023-02-12T04:33:36.870Z,22.70
2023-02-12T04:36:10.336Z,20.57
2023-02-12T04:38:40.174Z,18.17
2023-02-12T04:41:08.268Z,15.57
2023-02-12T04:43:37.073Z,15.93
2023-02-12T04:46:05.979Z,19.80
2023-02-12T04:48:34.715Z,17.67
2023-02-12T04:51:02.924Z,22.13
2023-02-12T04:53:31.958Z,17.77
2023-02-12T04:55:59.696Z,21.10
2023-02-12T04:58:27.303Z,18.87
2023-02-12T05:00:55.073Z,16.20
2023-02-12T05:03:22.862Z,22.33
2023-02-12T05:05:50.535Z,20.53
2023-02-12T05:08:18.160Z,19.70
2023-02-12T05:10:47.204Z,21.73
2023-02-12T05:13:14.906Z,18.07
2023-02-12T05:15:42.588Z,19.27
2023-02-12T05:18:10.291Z,14.73
2023-02-12T05:20:37.918Z,20.97
2023-02-12T05:23:05.541Z,14.87
2023-02-12T05:25:33.224Z,21.83
2023-02-12T05:28:02.314Z,13.97
2023-02-12T05:30:30.039Z,17.90
2023-02-12T05:32:57.796Z,18.23
2023-02-12T05:35:25.435Z,16.20
2023-02-12T05:37:53.071Z,15.50
2023-02-12T05:40:20.967Z,15.80
2023-02-12T05:42:48.619Z,16.43
2023-02-12T05:45:17.791Z,15.87
2023-02-12T05:47:45.540Z,16.67
2023-02-12T05:50:13.330Z,16.67
2023-02-12T05:52:40.988Z,11.27
2023-02-12T05:55:09.242Z,14.10
2023-02-12T05:57:37.024Z,14.53
2023-02-12T06:00:05.671Z,11.57
2023-02-12T06:02:35.950Z,14.53
2023-02-12T06:05:03.846Z,20.10
2023-02-12T06:07:31.493Z,20.53
2023-02-12T06:09:59.417Z,14.80
2023-02-12T06:12:27.203Z,15.93
2023-02-12T06:14:55.036Z,12.13
2023-02-12T06:17:22.654Z,10.07
2023-02-12T06:19:51.745Z,19.23
2023-02-12T06:22:19.388Z,15.43
2023-02-12T06:24:47.031Z,18.80
2023-02-12T06:27:14.772Z,14.93
2023-02-12T06:29:43.103Z,16.57
2023-02-12T06:32:13.613Z,13.40
2023-02-12T06:34:41.627Z,18.17
2023-02-12T06:37:10.698Z,12.03
2023-02-12T06:39:38.348Z,13.83
2023-02-12T06:42:06.186Z,12.27
2023-02-12T06:44:33.893Z,12.43
2023-02-12T06:47:01.544Z,13.73
2023-02-12T06:49:29.284Z,12.27
2023-02-12T06:51:57.030Z,14.50
2023-02-12T06:54:26.023Z,13.23
2023-02-12T06:56:53.678Z,13.63
2023-02-12T06:59:21.336Z,16.50
2023-02-12T07:01:48.946Z,12.30
2023-02-12T07:04:16.798Z,14.70
2023-02-12T07:06:44.508Z,13.60
2023-02-12T07:09:12.154Z,13.27
2023-02-12T07:11:41.196Z,12.43
2023-02-12T07:14:08.860Z,13.93
2023-02-12T07:16:36.642Z,14.50
2023-02-12T07:19:04.341Z,15.50
2023-02-12T07:21:32.191Z,14.73
2023-02-12T07:23:59.942Z,10.70
2023-02-12T07:26:27.773Z,14.50
2023-02-12T07:28:58.252Z,14.40
2023-02-12T07:31:26.025Z,7.77
2023-02-12T07:33:55.364Z,19.80
2023-02-12T07:36:23.370Z,14.30
2023-02-12T07:38:51.095Z,19.67
2023-02-12T07:41:20.132Z,17.57
2023-02-12T07:43:48.610Z,17.50
2023-02-12T07:46:18.858Z,21.10
2023-02-12T07:48:46.991Z,16.87
2023-02-12T07:51:15.588Z,18.60
2023-02-12T07:53:43.758Z,13.50
2023-02-12T07:56:12.435Z,16.83
2023-02-12T07:58:40.584Z,15.30
2023-02-12T08:01:15.853Z,16.97
2023-02-12T08:03:45.767Z,14.27
2023-02-12T08:06:14.374Z,14.27
2023-02-12T08:08:42.092Z,17.53
2023-02-12T08:11:10.207Z,16.03
2023-02-12T08:13:38.057Z,18.27
2023-02-12T08:16:06.802Z,15.70
2023-02-12T08:18:34.981Z,16.73
2023-02-12T08:21:04.966Z,19.40
2023-02-12T08:23:32.682Z,17.97
2023-02-12T08:26:07.204Z,14.20
2023-02-12T08:28:35.127Z,17.20
2023-02-12T08:31:03.150Z,17.73
2023-02-12T08:33:30.816Z,20.00
2023-02-12T08:36:02.906Z,17.83
2023-02-12T08:38:32.261Z,18.43
2023-02-12T08:41:01.976Z,18.13
2023-02-12T08:43:29.833Z,19.37
2023-02-12T08:46:02.359Z,19.83
2023-02-12T08:48:30.043Z,18.30
2023-02-12T08:50:57.759Z,19.47
2023-02-12T08:53:25.960Z,20.23
2023-02-12T08:55:55.395Z,17.57
2023-02-12T08:58:23.184Z,20.57
2023-02-12T09:00:50.914Z,19.90
2023-02-12T09:03:18.699Z,22.57
2023-02-12T09:05:46.366Z,19.00
2023-02-12T09:08:14.033Z,21.37
2023-02-12T09:10:41.854Z,21.07
2023-02-12T09:13:11.517Z,20.30
2023-02-12T09:15:39.289Z,19.77
2023-02-12T09:18:07.167Z,18.03
2023-02-12T09:20:34.812Z,21.47
2023-02-12T09:23:02.426Z,23.23
2023-02-12T09:25:30.082Z,16.77
2023-02-12T09:27:57.781Z,22.57
2023-02-12T09:30:26.815Z,22.90
2023-02-12T09:32:54.526Z,19.77
2023-02-12T09:35:22.308Z,18.77
2023-02-12T09:37:50.002Z,20.20
2023-02-12T09:40:18.430Z,19.37
2023-02-12T09:42:53.219Z,23.53
2023-02-12T09:45:22.416Z,22.37
2023-02-12T09:47:53.882Z,19.60
2023-02-12T09:50:30.209Z,19.20
2023-02-12T09:52:59.355Z,21.80
2023-02-12T09:55:29.152Z,20.73
2023-02-12T09:57:57.059Z,19.97
2023-02-12T10:00:28.071Z,25.97
2023-02-12T10:02:57.211Z,18.47
2023-02-12T10:05:26.687Z,21.47
2023-02-12T10:08:11.776Z,22.57
2023-02-12T10:10:48.325Z,24.97
2023-02-12T10:13:20.052Z,22.77
2023-02-12T10:15:52.656Z,19.10
2023-02-12T10:18:40.467Z,20.93
2023-02-12T10:21:15.482Z,20.40
2023-02-12T10:23:55.586Z,23.13
2023-02-12T10:26:25.893Z,24.00
2023-02-12T10:28:54.054Z,21.97
2023-02-12T10:31:28.516Z,22.93
2023-02-12T10:33:58.954Z,21.13
2023-02-12T10:36:32.432Z,24.47
2023-02-12T10:39:02.438Z,23.77
2023-02-12T10:41:31.577Z,24.50
2023-02-12T10:43:59.452Z,30.07
2023-02-12T10:46:31.245Z,23.53
2023-02-12T10:49:01.207Z,23.13
2023-02-12T10:51:46.458Z,23.73
2023-02-12T10:54:33.796Z,36.13
2023-02-12T10:57:06.059Z,24.50
2023-02-12T10:59:35.011Z,26.07
2023-02-12T11:02:03.627Z,26.03
2023-02-12T11:04:34.380Z,25.33
2023-02-12T11:07:03.628Z,27.47
2023-02-12T11:09:32.265Z,29.77
2023-02-12T11:11:59.983Z,30.03
2023-02-12T11:14:27.841Z,30.03
2023-02-12T11:16:56.128Z,27.70
2023-02-12T11:19:24.590Z,31.67
2023-02-12T11:21:53.810Z,31.53
2023-02-12T11:24:30.650Z,30.30
2023-02-12T11:27:14.701Z,33.47
2023-02-12T11:29:42.903Z,36.37
2023-02-12T11:32:16.441Z,29.83
2023-02-12T11:34:44.115Z,23.67
2023-02-12T11:37:16.404Z,29.63
2023-02-12T11:39:47.180Z,34.33
2023-02-12T11:42:17.208Z,33.07
2023-02-12T11:44:49.197Z,27.80
2023-02-12T11:47:19.083Z,37.73
2023-02-12T11:49:50.855Z,31.47
2023-02-12T11:52:22.461Z,37.77
2023-02-12T11:54:51.828Z,27.57
2023-02-12T11:57:38.266Z,29.33
2023-02-12T12:00:07.955Z,26.13
2023-02-12T12:02:39.303Z,25.57
2023-02-12T12:05:10.259Z,28.90
2023-02-12T12:07:41.598Z,27.27
2023-02-12T12:10:13.835Z,39.43
2023-02-12T12:12:43.540Z,40.53
2023-02-12T12:15:34.317Z,26.80
2023-02-12T12:18:22.791Z,26.27
2023-02-12T12:20:55.006Z,23.23
2023-02-12T12:23:26.426Z,26.77
2023-02-12T12:25:56.779Z,23.07
2023-02-12T12:28:29.353Z,30.87
2023-02-12T12:31:03.715Z,23.33
2023-02-12T12:33:34.907Z,24.33
2023-02-12T12:36:11.589Z,24.43
2023-02-12T12:38:46.206Z,20.57
2023-02-12T12:41:20.068Z,23.90
2023-02-12T12:43:57.059Z,25.30
2023-02-12T12:46:35.418Z,23.70
2023-02-12T12:49:09.013Z,26.17
2023-02-12T12:51:45.892Z,21.80
2023-02-12T12:54:20.287Z,27.17
2023-02-12T12:56:57.739Z,27.47
2023-02-12T12:59:36.514Z,30.10
2023-02-12T13:02:20.674Z,22.73
2023-02-12T13:05:07.053Z,22.63
2023-02-12T13:07:39.501Z,21.27
2023-02-12T13:10:15.881Z,24.23
2023-02-12T13:12:49.127Z,25.40
2023-02-12T13:15:20.554Z,25.97
2023-02-12T13:17:51.065Z,24.90
2023-02-12T13:20:22.280Z,24.67
2023-02-12T13:22:53.944Z,28.87
2023-02-12T13:25:29.837Z,28.47
2023-02-12T13:27:58.700Z,29.33
2023-02-12T13:30:28.630Z,30.87
2023-02-12T13:33:01.370Z,26.07
2023-02-12T13:35:30.528Z,28.93
2023-02-12T13:37:58.202Z,25.27
2023-02-12T13:40:28.329Z,26.63
2023-02-12T13:43:01.164Z,25.77
2023-02-12T13:45:35.816Z,25.17
2023-02-12T13:48:30.260Z,25.60
2023-02-12T13:51:02.926Z,26.27
2023-02-12T13:53:33.641Z,24.23
2023-02-12T13:56:07.503Z,25.20
2023-02-12T13:58:56.270Z,31.83
2023-02-12T14:01:46.797Z,24.10
2023-02-12T14:04:32.685Z,25.63
2023-02-12T14:07:01.944Z,25.47
2023-02-12T14:09:35.365Z,25.37
2023-02-12T14:12:05.674Z,24.53
2023-02-12T14:14:35.363Z,28.80
2023-02-12T14:17:21.737Z,25.53
2023-02-12T14:19:56.748Z,30.23
2023-02-12T14:22:42.191Z,25.37
2023-02-12T14:25:24.676Z,28.73
2023-02-12T14:27:54.235Z,28.30
2023-02-12T14:30:30.670Z,28.83
2023-02-12T14:33:16.216Z,28.77
2023-02-12T14:35:44.428Z,27.00
2023-02-12T14:38:36.798Z,28.23
2023-02-12T14:41:34.217Z,29.80
2023-02-12T14:44:16.759Z,26.20
2023-02-12T14:46:47.433Z,34.93
2023-02-12T14:49:24.416Z,25.40
2023-02-12T14:51:54.808Z,27.33
2023-02-12T14:54:27.063Z,28.43
2023-02-12T14:56:55.660Z,23.40
2023-02-12T14:59:25.553Z,28.17
2023-02-12T15:01:56.050Z,27.93
2023-02-12T15:04:26.681Z,26.80
2023-02-12T15:06:56.350Z,30.57
2023-02-12T15:09:28.328Z,26.73
2023-02-12T15:11:59.573Z,31.63
2023-02-12T15:14:29.319Z,35.77
2023-02-12T15:17:00.200Z,31.90
2023-02-12T15:19:35.757Z,31.90
2023-02-12T15:22:03.438Z,32.23
2023-02-12T15:24:31.089Z,30.70
2023-02-12T15:26:59.691Z,30.50
2023-02-12T15:29:28.785Z,30.93
2023-02-12T15:31:57.741Z,35.00
2023-02-12T15:34:29.023Z,32.97
2023-02-12T15:36:59.484Z,33.73
2023-02-12T15:39:27.962Z,31.53
2023-02-12T15:41:55.877Z,33.57
2023-02-12T15:44:25.593Z,38.40
2023-02-12T15:49:49.108Z,31.03
2023-02-12T15:52:19.104Z,31.87
2023-02-12T15:54:47.137Z,36.60
2023-02-12T15:57:19.865Z,33.10
2023-02-12T15:59:51.569Z,32.87
2023-02-12T16:02:20.805Z,37.77
2023-02-12T16:04:49.848Z,36.80
2023-02-12T16:07:17.773Z,32.57
2023-02-12T16:09:46.013Z,39.93
2023-02-12T16:12:15.629Z,34.93
2023-02-12T16:14:46.571Z,38.57
2023-02-12T16:17:22.359Z,34.97
2023-02-12T16:19:58.805Z,38.40
2023-02-12T16:22:28.502Z,45.13
2023-02-12T16:24:57.550Z,42.67
2023-02-12T16:27:26.146Z,43.83
2023-02-12T16:29:54.765Z,41.80
2023-02-12T16:32:30.146Z,43.60
2023-02-12T16:35:04.391Z,42.60
2023-02-12T16:37:43.174Z,38.73
2023-02-12T16:40:18.673Z,39.40
2023-02-12T16:42:57.221Z,39.57
2023-02-12T16:45:43.831Z,41.47
2023-02-12T16:48:18.089Z,40.67
2023-02-12T16:50:48.997Z,46.00
2023-02-12T16:53:26.106Z,44.80
2023-02-12T16:55:54.030Z,39.87
2023-02-12T16:58:21.753Z,42.47
2023-02-12T17:00:49.968Z,38.57
2023-02-12T17:03:18.623Z,44.23
2023-02-12T17:05:49.509Z,43.13
2023-02-12T17:08:18.944Z,43.67
2023-02-12T17:10:48.210Z,57.40
2023-02-12T17:13:16.467Z,40.67
2023-02-12T17:15:46.631Z,45.30
2023-02-12T17:18:14.339Z,45.67
2023-02-12T17:20:42.173Z,47.07
2023-02-12T17:23:11.380Z,43.87
2023-02-12T17:25:39.040Z,51.40
2023-02-12T17:28:08.910Z,46.00
2023-02-12T17:30:37.442Z,50.27
2023-02-12T17:33:05.236Z,50.57
2023-02-12T17:35:33.053Z,44.43
2023-02-12T17:38:00.743Z,49.03
2023-02-12T17:40:29.756Z,46.97
2023-02-12T17:42:58.452Z,45.73
2023-02-12T17:45:26.139Z,52.27
2023-02-12T17:47:53.826Z,59.47
2023-02-12T17:50:21.663Z,56.97
2023-02-12T17:52:49.946Z,70.03
2023-02-12T17:55:17.894Z,52.07
2023-02-12T17:57:47.002Z,45.33
2023-02-12T18:00:15.334Z,51.30
2023-02-12T18:02:42.999Z,46.73
2023-02-12T18:05:10.723Z,47.20
2023-02-12T18:07:38.702Z,46.50
2023-02-12T18:10:06.950Z,49.50
2023-02-12T18:12:35.110Z,45.67
2023-02-12T18:15:05.071Z,47.70
2023-02-12T18:17:32.904Z,46.90
2023-02-12T18:20:00.653Z,54.47
2023-02-12T18:22:28.314Z,50.57
2023-02-12T18:24:57.683Z,50.63
2023-02-12T18:27:25.509Z,47.90
2023-02-12T18:29:53.162Z,51.13
2023-02-12T18:32:22.188Z,52.40
2023-02-12T18:34:49.865Z,53.40
2023-02-12T18:37:17.497Z,46.80
2023-02-12T18:39:45.202Z,50.13
2023-02-12T18:42:12.961Z,54.47
2023-02-12T18:44:40.745Z,48.90
2023-02-12T18:47:08.388Z,51.53
2023-02-12T18:49:37.619Z,49.03
2023-02-12T18:52:05.910Z,52.77
2023-02-12T18:54:33.637Z,48.70
2023-02-12T18:57:01.343Z,54.63
2023-02-12T18:59:28.982Z,50.33
2023-02-12T19:01:56.789Z,50.97
2023-02-12T19:04:26.673Z,52.67
2023-02-12T19:06:56.007Z,55.07
2023-02-12T19:09:24.553Z,56.00
2023-02-12T19:11:53.084Z,53.53
2023-02-12T19:14:21.852Z,58.17
2023-02-12T19:16:49.671Z,53.93
2023-02-12T19:19:18.261Z,51.50
2023-02-12T19:21:45.901Z,53.93
2023-02-12T19:24:15.871Z,53.20
2023-02-12T19:26:44.977Z,53.57
2023-02-12T19:29:12.659Z,52.03
2023-02-12T19:31:41.893Z,57.03
2023-02-12T19:34:14.649Z,50.53
2023-02-12T19:36:42.327Z,58.80
2023-02-12T19:39:10.173Z,52.50
2023-02-12T19:41:41.140Z,51.27
2023-02-12T19:44:12.283Z,50.93
2023-02-12T19:46:40.677Z,49.60
2023-02-12T19:49:09.090Z,52.23
2023-02-12T19:51:39.592Z,51.43
2023-02-12T19:54:08.115Z,53.27
2023-02-12T19:56:35.932Z,53.13
2023-02-12T19:59:06.414Z,53.63
2023-02-12T20:01:34.683Z,51.47
2023-02-12T20:04:03.467Z,52.43
2023-02-12T20:06:31.897Z,52.90
2023-02-12T20:08:59.741Z,50.80
2023-02-12T20:11:29.334Z,50.30
2023-02-12T20:13:57.100Z,50.10
2023-02-12T20:16:31.194Z,57.60
2023-02-12T20:19:00.623Z,56.43
2023-02-12T20:21:29.722Z,58.27
2023-02-12T20:23:57.732Z,52.83
2023-02-12T20:26:25.490Z,60.73
2023-02-12T20:28:53.221Z,52.40
2023-02-12T20:31:22.969Z,58.23
2023-02-12T20:33:56.078Z,60.27
2023-02-12T20:36:24.021Z,63.47
2023-02-12T20:38:52.595Z,55.90
2023-02-12T20:41:20.321Z,62.03
2023-02-12T20:43:47.997Z,55.17
2023-02-12T20:46:17.879Z,57.83
2023-02-12T20:48:45.583Z,65.93
2023-02-12T20:51:15.318Z,57.07
2023-02-12T20:53:43.412Z,62.33
2023-02-12T20:56:12.206Z,57.60
2023-02-12T20:58:41.250Z,61.83
2023-02-12T21:01:12.440Z,60.33
2023-02-12T21:03:40.480Z,65.63
2023-02-12T21:06:08.419Z,60.80
2023-02-12T21:08:38.045Z,60.60
2023-02-12T21:11:06.415Z,63.10
2023-02-12T21:13:34.090Z,58.23
2023-02-12T21:16:05.618Z,64.57
2023-02-12T21:18:33.304Z,58.17
2023-02-12T21:21:01.564Z,57.40
2023-02-12T21:23:35.461Z,54.00
2023-02-12T21:26:05.314Z,58.30
2023-02-12T21:28:33.970Z,59.53
2023-02-12T21:31:06.449Z,57.10
2023-02-12T21:33:34.232Z,64.40
2023-02-12T21:36:03.929Z,66.83
2023-02-12T21:38:32.731Z,65.67
2023-02-12T21:41:08.007Z,64.60
2023-02-12T21:43:36.489Z,65.47
2023-02-12T21:46:04.255Z,60.30
2023-02-12T21:48:31.964Z,59.70
2023-02-12T21:50:59.937Z,62.30
2023-02-12T21:53:27.896Z,68.13
2023-02-12T21:55:56.320Z,66.80
2023-02-12T21:58:25.547Z,58.70
2023-02-12T22:00:53.228Z,63.53
2023-02-12T22:03:21.100Z,57.37
2023-02-12T22:05:48.825Z,66.73
2023-02-12T22:08:16.494Z,65.17
2023-02-12T22:10:44.163Z,62.23
2023-02-12T22:13:11.936Z,60.17
2023-02-12T22:15:40.959Z,60.97
2023-02-12T22:18:08.607Z,61.63
2023-02-12T22:20:36.308Z,60.77
2023-02-12T22:23:03.974Z,61.83
2023-02-12T22:25:31.656Z,62.00
2023-02-12T22:27:59.371Z,58.30
2023-02-12T22:30:26.986Z,63.73
2023-02-12T22:32:56.025Z,64.93
2023-02-12T22:35:23.694Z,66.63
2023-02-12T22:37:51.365Z,60.83
2023-02-12T22:40:19.030Z,64.70
2023-02-12T22:42:46.709Z,64.80
2023-02-12T22:45:14.340Z,60.10
2023-02-12T22:47:41.961Z,62.57
2023-02-12T22:50:11.719Z,68.63
2023-02-12T22:52:39.785Z,62.53
2023-02-12T22:55:07.407Z,61.57
2023-02-12T22:57:35.105Z,70.77
2023-02-12T23:00:02.873Z,72.60
2023-02-12T23:02:30.599Z,65.97
2023-02-12T23:04:58.267Z,70.37
2023-02-12T23:07:27.249Z,62.97
2023-02-12T23:09:54.893Z,65.17
2023-02-12T23:12:22.701Z,68.50
2023-02-12T23:14:50.362Z,63.97
2023-02-12T23:17:18.036Z,59.50
2023-02-12T23:19:45.803Z,66.47
2023-02-12T23:22:13.500Z,71.10
2023-02-12T23:24:42.497Z,69.67
2023-02-12T23:27:12.043Z,70.23
2023-02-12T23:29:40.345Z,66.93
2023-02-12T23:32:08.235Z,68.83
2023-02-12T23:34:35.999Z,61.57
2023-02-12T23:37:03.730Z,63.90
2023-02-12T23:39:31.409Z,62.43
2023-02-12T23:42:00.447Z,62.87
2023-02-12T23:44:28.134Z,67.90
2023-02-12T23:46:55.754Z,67.73
2023-02-12T23:49:23.561Z,68.30
2023-02-12T23:51:51.627Z,59.37
2023-02-12T23:54:19.259Z,67.87
2023-02-12T23:56:46.990Z,59.80
2023-02-12T23:59:15.995Z,68.97
